createdAt,value
2019-02-07T00:00:58.683Z,23.90
2019-02-07T00:03:26.715Z,24.10
2019-02-07T00:05:54.716Z,22.90
2019-02-07T00:08:22.940Z,25.23
2019-02-07T00:10:50.987Z,25.07
2019-02-07T00:13:19.075Z,24.23
2019-02-07T00:15:47.100Z,23.93
2019-02-07T00:18:15.171Z,23.97
2019-02-07T00:20:43.370Z,25.80
2019-02-07T00:23:11.385Z,24.03
2019-02-07T00:25:39.596Z,23.57
2019-02-07T00:28:10.262Z,21.30
2019-02-07T00:30:38.351Z,21.77
2019-02-07T00:33:06.577Z,22.43
2019-02-07T00:35:34.551Z,20.30
2019-02-07T00:38:02.592Z,17.70
2019-02-07T00:40:30.706Z,17.80
2019-02-07T00:42:58.647Z,18.93
2019-02-07T00:45:26.638Z,18.37
2019-02-07T00:47:54.723Z,19.00
2019-02-07T00:50:22.667Z,16.27
2019-02-07T00:52:50.739Z,17.43
2019-02-07T00:55:18.817Z,18.40
2019-02-07T00:57:46.963Z,18.53
2019-02-07T01:00:21.864Z,18.57
2019-02-07T01:02:52.942Z,19.70
2019-02-07T01:05:21.561Z,20.10
2019-02-07T01:07:49.647Z,19.07
2019-02-07T01:10:19.296Z,20.23
2019-02-07T01:12:47.375Z,19.80
2019-02-07T01:15:15.596Z,19.97
2019-02-07T01:17:43.540Z,20.60
2019-02-07T01:20:12.427Z,21.87
2019-02-07T01:22:40.578Z,20.87
2019-02-07T01:25:10.233Z,21.53
2019-02-07T01:27:38.308Z,21.23
2019-02-07T01:30:06.879Z,21.63
2019-02-07T01:32:34.904Z,19.13
2019-02-07T01:35:02.987Z,20.90
2019-02-07T01:37:31.067Z,18.10
2019-02-07T01:39:58.961Z,19.43
2019-02-07T01:42:27.390Z,19.97
2019-02-07T01:44:55.380Z,17.37
2019-02-07T01:47:23.378Z,17.83
2019-02-07T01:49:53.143Z,17.73
2019-02-07T01:52:21.221Z,16.87
2019-02-07T01:54:49.197Z,17.83
2019-02-07T01:57:17.115Z,16.93
2019-02-07T01:59:45.395Z,16.20
2019-02-07T02:02:13.307Z,16.90
2019-02-07T02:04:41.228Z,18.13
2019-02-07T02:07:09.226Z,18.57
2019-02-07T02:09:37.354Z,17.17
2019-02-07T02:12:05.675Z,19.33
2019-02-07T02:14:33.868Z,16.90
2019-02-07T02:17:01.795Z,18.27
2019-02-07T02:19:29.717Z,17.60
2019-02-07T02:21:57.818Z,16.50
2019-02-07T02:24:25.832Z,15.53
2019-02-07T02:26:53.827Z,16.70
2019-02-07T02:29:21.901Z,15.73
2019-02-07T02:31:50.635Z,16.77
2019-02-07T02:34:18.656Z,17.03
2019-02-07T02:36:46.616Z,16.37
2019-02-07T02:39:14.670Z,17.00
2019-02-07T02:41:42.665Z,15.37
2019-02-07T02:44:10.659Z,17.13
2019-02-07T02:46:38.759Z,18.00
2019-02-07T02:49:07.326Z,15.57
2019-02-07T02:51:35.377Z,15.33
2019-02-07T02:54:03.951Z,16.17
2019-02-07T02:56:32.235Z,16.23
2019-02-07T02:59:00.215Z,16.13
2019-02-07T03:01:52.919Z,14.93
2019-02-07T03:04:53.099Z,14.77
2019-02-07T03:07:52.312Z,16.33
2019-02-07T03:10:42.811Z,14.67
2019-02-07T03:13:29.129Z,16.37
2019-02-07T03:16:16.549Z,16.10
2019-02-07T03:19:10.075Z,15.67
2019-02-07T03:22:08.925Z,15.03
2019-02-07T03:25:01.912Z,15.33
2019-02-07T03:27:53.688Z,15.00
2019-02-07T03:30:50.099Z,16.73
2019-02-07T03:33:35.061Z,14.80
2019-02-07T03:36:20.335Z,14.90
2019-02-07T03:39:00.725Z,14.10
2019-02-07T03:41:40.080Z,14.73
2019-02-07T03:44:39.057Z,14.67
2019-02-07T03:47:35.189Z,15.37
2019-02-07T03:50:27.935Z,15.50
2019-02-07T03:53:21.033Z,14.23
2019-02-07T03:56:23.406Z,13.67
2019-02-07T03:59:19.400Z,16.60
2019-02-07T04:02:06.348Z,13.40
2019-02-07T04:04:42.423Z,14.00
2019-02-07T04:07:29.646Z,14.80
2019-02-07T04:10:07.967Z,14.80
2019-02-07T04:12:54.947Z,14.63
2019-02-07T04:16:00.051Z,14.53
2019-02-07T04:18:52.029Z,14.30
2019-02-07T04:21:51.168Z,13.77
2019-02-07T04:24:44.448Z,14.27
2019-02-07T04:27:30.239Z,14.43
2019-02-07T04:30:29.520Z,14.37
2019-02-07T04:33:28.546Z,15.67
2019-02-07T04:36:14.174Z,15.63
2019-02-07T04:38:59.908Z,15.97
2019-02-07T04:41:59.238Z,17.13
2019-02-07T04:44:44.771Z,16.30
2019-02-07T04:47:34.784Z,17.60
2019-02-07T04:50:37.136Z,17.20
2019-02-07T04:53:24.347Z,17.87
2019-02-07T04:56:03.646Z,16.27
2019-02-07T04:58:54.165Z,17.03
2019-02-07T05:01:53.059Z,15.43
2019-02-07T05:04:42.771Z,14.03
2019-02-07T05:07:31.165Z,14.13
2019-02-07T05:10:21.328Z,14.60
2019-02-07T05:13:03.197Z,13.83
2019-02-07T05:15:50.265Z,14.17
2019-02-07T05:18:55.921Z,14.27
2019-02-07T05:21:41.847Z,13.63
2019-02-07T05:24:34.968Z,14.43
2019-02-07T05:27:21.970Z,15.43
2019-02-07T05:30:12.097Z,12.70
2019-02-07T05:32:57.568Z,15.23
2019-02-07T05:35:47.701Z,15.43
2019-02-07T05:38:46.960Z,7.10
2019-02-07T05:41:32.591Z,5.47
2019-02-07T05:44:13.619Z,4.50
2019-02-07T05:47:00.753Z,3.50
2019-02-07T05:49:47.772Z,4.10
2019-02-07T05:52:40.808Z,4.10
2019-02-07T05:55:40.462Z,3.47
2019-02-07T05:58:19.037Z,4.27
2019-02-07T06:01:11.819Z,3.80
2019-02-07T06:03:51.630Z,4.33
2019-02-07T06:06:43.150Z,4.47
2019-02-07T06:09:26.487Z,4.07
2019-02-07T06:12:25.518Z,5.00
2019-02-07T06:15:09.380Z,5.43
2019-02-07T06:17:44.816Z,4.23
2019-02-07T06:20:22.113Z,4.87
2019-02-07T06:23:12.428Z,5.13
2019-02-07T06:26:08.689Z,5.20
2019-02-07T06:29:01.837Z,4.80
2019-02-07T06:31:51.651Z,4.97
2019-02-07T06:34:37.335Z,4.87
2019-02-07T06:37:14.546Z,5.77
2019-02-07T06:39:51.123Z,5.67
2019-02-07T06:42:38.411Z,4.60
2019-02-07T06:45:28.342Z,5.43
2019-02-07T06:48:09.515Z,4.67
2019-02-07T06:51:08.700Z,6.27
2019-02-07T06:53:55.832Z,5.10
2019-02-07T06:56:46.129Z,4.20
2019-02-07T06:59:36.562Z,5.03
2019-02-07T07:02:35.872Z,5.70
2019-02-07T07:05:32.878Z,5.93
2019-02-07T07:08:27.572Z,5.47
2019-02-07T07:11:23.877Z,5.13
2019-02-07T07:14:14.134Z,5.07
2019-02-07T07:17:04.327Z,5.60
2019-02-07T07:19:54.452Z,5.13
2019-02-07T07:22:40.148Z,4.53
2019-02-07T07:25:33.005Z,5.27
2019-02-07T07:28:14.837Z,5.97
2019-02-07T07:31:00.460Z,6.03
2019-02-07T07:33:53.378Z,5.43
2019-02-07T07:36:55.395Z,4.80
2019-02-07T07:39:50.131Z,4.43
2019-02-07T07:42:43.312Z,5.80
2019-02-07T07:45:47.848Z,4.43
2019-02-07T07:48:49.675Z,4.03
2019-02-07T07:51:35.471Z,4.60
2019-02-07T07:54:28.267Z,4.13
2019-02-07T07:57:14.193Z,3.80
2019-02-07T07:59:59.895Z,4.07
2019-02-07T08:02:40.066Z,4.37
2019-02-07T08:05:30.154Z,3.23
2019-02-07T08:08:23.380Z,3.37
2019-02-07T08:11:08.206Z,3.67
2019-02-07T08:13:54.128Z,4.37
2019-02-07T08:16:47.174Z,4.33
2019-02-07T08:19:52.704Z,3.60
2019-02-07T08:22:38.457Z,4.43
2019-02-07T08:25:26.396Z,3.80
2019-02-07T08:28:11.823Z,3.67
2019-02-07T08:30:59.929Z,3.77
2019-02-07T08:33:45.786Z,3.80
2019-02-07T08:36:27.537Z,3.63
2019-02-07T08:39:17.557Z,3.83
2019-02-07T08:42:03.310Z,4.07
2019-02-07T08:44:56.548Z,4.30
2019-02-07T08:47:43.768Z,3.60
2019-02-07T08:50:30.174Z,4.00
2019-02-07T08:53:06.973Z,4.10
2019-02-07T08:55:56.782Z,3.83
2019-02-07T08:58:49.632Z,2.63
2019-02-07T09:01:35.439Z,3.40
2019-02-07T09:04:35.150Z,3.47
2019-02-07T09:07:20.892Z,3.33
2019-02-07T09:10:14.651Z,2.50
2019-02-07T09:13:07.658Z,3.90
2019-02-07T09:15:48.901Z,4.17
2019-02-07T09:18:39.310Z,3.30
2019-02-07T09:21:23.333Z,4.27
2019-02-07T09:24:10.569Z,4.17
2019-02-07T09:26:57.595Z,4.43
2019-02-07T09:29:47.883Z,3.60
2019-02-07T09:32:34.931Z,3.63
2019-02-07T09:35:19.383Z,3.47
2019-02-07T09:38:12.341Z,4.43
2019-02-07T09:41:11.736Z,4.13
2019-02-07T09:44:04.615Z,4.20
2019-02-07T09:46:50.664Z,3.97
2019-02-07T09:49:30.071Z,3.70
2019-02-07T09:52:07.016Z,3.80
2019-02-07T09:55:00.302Z,3.77
2019-02-07T09:57:47.262Z,3.40
2019-02-07T10:00:27.451Z,4.50
2019-02-07T10:03:11.780Z,3.53
2019-02-07T10:05:57.259Z,4.10
2019-02-07T10:08:35.548Z,3.37
2019-02-07T10:11:22.647Z,3.93
2019-02-07T10:14:28.190Z,3.90
2019-02-07T10:17:12.307Z,3.73
2019-02-07T10:20:17.499Z,4.80
2019-02-07T10:23:03.222Z,4.13
2019-02-07T10:25:54.011Z,3.83
2019-02-07T10:28:57.906Z,3.40
2019-02-07T10:31:50.808Z,5.33
2019-02-07T10:34:44.107Z,4.13
2019-02-07T10:37:32.006Z,3.77
2019-02-07T10:40:17.491Z,4.00
2019-02-07T10:43:13.692Z,4.33
2019-02-07T10:46:21.454Z,3.70
2019-02-07T10:49:26.106Z,3.43
2019-02-07T10:52:15.736Z,3.90
2019-02-07T10:55:05.571Z,4.43
2019-02-07T10:57:55.944Z,4.03
2019-02-07T11:00:42.539Z,3.33
2019-02-07T11:03:28.227Z,3.73
2019-02-07T11:06:30.736Z,3.20
2019-02-07T11:09:20.822Z,3.20
2019-02-07T11:12:11.182Z,3.27
2019-02-07T11:14:53.885Z,3.30
2019-02-07T11:17:53.060Z,3.77
2019-02-07T11:20:44.683Z,3.43
2019-02-07T11:23:30.739Z,3.47
2019-02-07T11:26:20.615Z,3.43
2019-02-07T11:29:05.625Z,3.20
2019-02-07T11:32:04.936Z,3.63
2019-02-07T11:34:45.937Z,4.00
2019-02-07T11:37:36.068Z,3.87
2019-02-07T11:40:22.299Z,3.20
2019-02-07T11:43:09.427Z,3.33
2019-02-07T11:45:56.430Z,3.33
2019-02-07T11:48:49.938Z,3.87
2019-02-07T11:51:43.091Z,3.37
2019-02-07T11:54:33.910Z,4.07
2019-02-07T11:57:21.005Z,3.30
2019-02-07T12:00:14.313Z,3.43
2019-02-07T12:02:59.952Z,2.83
2019-02-07T12:05:45.862Z,3.53
2019-02-07T12:08:28.163Z,3.30
2019-02-07T12:11:17.974Z,3.10
2019-02-07T12:14:03.846Z,3.37
2019-02-07T12:16:49.661Z,3.03
2019-02-07T12:19:44.292Z,3.20
2019-02-07T12:22:29.137Z,2.93
2019-02-07T12:25:17.023Z,3.30
2019-02-07T12:27:59.812Z,3.10
2019-02-07T12:30:45.600Z,3.00
2019-02-07T12:33:38.924Z,2.90
2019-02-07T12:36:20.390Z,3.33
2019-02-07T12:39:05.798Z,2.73
2019-02-07T12:41:53.630Z,3.03
2019-02-07T12:44:42.766Z,3.10
2019-02-07T12:47:35.807Z,2.90
2019-02-07T12:50:20.744Z,2.80
2019-02-07T12:53:09.074Z,2.67
2019-02-07T12:55:54.424Z,2.90
2019-02-07T12:58:48.716Z,3.23
2019-02-07T13:01:41.041Z,3.00
2019-02-07T13:04:25.141Z,3.03
2019-02-07T13:07:10.978Z,2.90
2019-02-07T13:09:58.063Z,2.80
2019-02-07T13:12:48.261Z,2.50
2019-02-07T13:15:38.308Z,3.27
2019-02-07T13:18:27.336Z,2.93
2019-02-07T13:21:09.969Z,2.90
2019-02-07T13:24:03.537Z,3.07
2019-02-07T13:26:49.431Z,3.10
2019-02-07T13:29:46.113Z,3.27
2019-02-07T13:32:36.169Z,2.73
2019-02-07T13:35:22.613Z,3.53
2019-02-07T13:38:08.322Z,2.97
2019-02-07T13:41:06.773Z,2.70
2019-02-07T13:44:08.161Z,2.87
2019-02-07T13:46:53.997Z,2.90
2019-02-07T13:49:51.671Z,3.30
2019-02-07T13:52:27.985Z,3.30
2019-02-07T13:55:10.522Z,2.63
2019-02-07T13:58:11.433Z,3.80
2019-02-07T14:01:10.620Z,2.67
2019-02-07T14:04:15.983Z,2.67
2019-02-07T14:07:02.920Z,3.00
2019-02-07T14:09:41.285Z,2.60
2019-02-07T14:12:26.611Z,3.17
2019-02-07T14:15:22.814Z,2.53
2019-02-07T14:18:04.492Z,3.40
2019-02-07T14:20:57.806Z,2.93
2019-02-07T14:24:00.717Z,3.00
2019-02-07T14:26:47.766Z,2.90
2019-02-07T14:29:43.833Z,2.60
2019-02-07T14:32:37.847Z,2.80
2019-02-07T14:35:31.072Z,3.27
2019-02-07T14:38:14.667Z,3.37
2019-02-07T14:41:11.068Z,2.67
2019-02-07T14:44:09.935Z,2.77
2019-02-07T14:46:47.829Z,2.90
2019-02-07T14:49:17.806Z,2.80
2019-02-07T14:51:45.816Z,2.73
2019-02-07T14:54:14.140Z,2.90
2019-02-07T14:56:42.162Z,3.10
2019-02-07T14:59:10.280Z,3.23
2019-02-07T15:01:38.761Z,3.00
2019-02-07T15:04:07.212Z,3.30
2019-02-07T15:06:35.215Z,2.90
2019-02-07T15:09:04.046Z,3.23
2019-02-07T15:11:31.978Z,3.07
2019-02-07T15:13:59.999Z,3.10
2019-02-07T15:16:28.024Z,2.70
2019-02-07T15:18:56.054Z,3.17
2019-02-07T15:21:24.062Z,3.30
2019-02-07T15:23:52.014Z,3.77
2019-02-07T15:26:21.056Z,3.00
2019-02-07T15:28:49.044Z,3.10
2019-02-07T15:31:17.055Z,3.83
2019-02-07T15:33:45.053Z,3.27
2019-02-07T15:36:13.175Z,3.50
2019-02-07T15:38:41.139Z,3.53
2019-02-07T15:41:09.307Z,3.20
2019-02-07T15:43:37.299Z,3.27
2019-02-07T15:46:06.087Z,3.70
2019-02-07T15:48:34.032Z,3.90
2019-02-07T15:51:02.032Z,3.43
2019-02-07T15:53:30.075Z,3.40
2019-02-07T15:55:58.073Z,3.53
2019-02-07T15:58:36.905Z,3.00
2019-02-07T16:01:11.820Z,3.43
2019-02-07T16:03:46.629Z,4.30
2019-02-07T16:06:14.674Z,3.13
2019-02-07T16:08:42.612Z,4.17
2019-02-07T16:11:10.751Z,3.43
2019-02-07T16:13:38.779Z,2.80
2019-02-07T16:16:06.918Z,3.20
2019-02-07T16:18:34.949Z,3.07
2019-02-07T16:21:02.939Z,3.80
2019-02-07T16:23:30.925Z,3.77
2019-02-07T16:25:58.860Z,3.10
2019-02-07T16:28:28.744Z,2.60
2019-02-07T16:30:56.744Z,3.17
2019-02-07T16:33:24.976Z,2.90
2019-02-07T16:35:53.071Z,4.00
2019-02-07T16:38:21.030Z,2.80
2019-02-07T16:40:49.991Z,3.60
2019-02-07T16:43:18.094Z,3.57
2019-02-07T16:45:46.082Z,3.27
2019-02-07T16:48:14.101Z,3.73
2019-02-07T16:50:42.032Z,3.60
2019-02-07T16:53:10.136Z,3.83
2019-02-07T16:55:38.277Z,3.23
2019-02-07T16:58:06.414Z,3.23
2019-02-07T17:00:34.673Z,3.47
2019-02-07T17:03:02.847Z,3.23
2019-02-07T17:05:31.016Z,3.70
2019-02-07T17:07:59.034Z,3.90
2019-02-07T17:10:29.183Z,4.00
2019-02-07T17:12:57.193Z,4.10
2019-02-07T17:15:25.176Z,4.00
2019-02-07T17:17:53.621Z,3.57
2019-02-07T17:20:23.408Z,3.47
2019-02-07T17:22:51.413Z,3.70
2019-02-07T17:25:19.563Z,3.03
2019-02-07T17:27:47.569Z,3.27
2019-02-07T17:30:16.007Z,3.53
2019-02-07T17:32:44.025Z,4.20
2019-02-07T17:35:12.354Z,3.77
2019-02-07T17:37:40.313Z,3.10
2019-02-07T17:40:10.411Z,3.10
2019-02-07T17:42:38.467Z,3.23
2019-02-07T17:45:09.332Z,3.93
2019-02-07T17:47:37.317Z,3.33
2019-02-07T17:50:07.888Z,2.43
2019-02-07T17:52:36.002Z,3.07
2019-02-07T17:55:04.825Z,3.73
2019-02-07T17:57:32.727Z,3.20
2019-02-07T18:00:00.815Z,3.70
2019-02-07T18:02:28.821Z,3.67
2019-02-07T18:04:56.788Z,3.60
2019-02-07T18:07:24.879Z,3.43
2019-02-07T18:09:52.802Z,3.30
2019-02-07T18:12:20.820Z,3.53
2019-02-07T18:14:49.665Z,3.07
2019-02-07T18:17:17.662Z,3.53
2019-02-07T18:19:45.728Z,3.93
2019-02-07T18:22:13.825Z,3.90
2019-02-07T18:24:41.845Z,3.17
2019-02-07T18:27:10.502Z,3.83
2019-02-07T18:29:38.453Z,3.50
2019-02-07T18:32:06.511Z,3.47
2019-02-07T18:34:34.496Z,3.60
2019-02-07T18:37:02.674Z,4.27
2019-02-07T18:39:30.963Z,2.93
2019-02-07T18:41:59.093Z,3.27
2019-02-07T18:44:27.113Z,3.10
2019-02-07T18:46:55.143Z,3.63
2019-02-07T18:49:23.132Z,4.37
2019-02-07T18:51:51.141Z,3.83
2019-02-07T18:54:19.239Z,3.40
2019-02-07T18:56:47.220Z,4.20
2019-02-07T18:59:15.208Z,3.80
2019-02-07T19:01:43.127Z,4.33
2019-02-07T19:04:11.149Z,3.40
2019-02-07T19:06:39.122Z,2.93
2019-02-07T19:09:08.767Z,4.07
2019-02-07T19:11:36.825Z,3.57
2019-02-07T19:14:05.303Z,3.10
2019-02-07T19:16:33.261Z,3.53
2019-02-07T19:19:01.333Z,3.57
2019-02-07T19:21:29.456Z,3.63
2019-02-07T19:23:57.655Z,3.80
2019-02-07T19:26:25.612Z,2.80
2019-02-07T19:28:53.696Z,3.97
2019-02-07T19:31:22.071Z,3.77
2019-02-07T19:33:50.080Z,3.33
2019-02-07T19:36:18.058Z,3.30
2019-02-07T19:38:46.154Z,3.60
2019-02-07T19:41:14.117Z,3.23
2019-02-07T19:43:42.065Z,3.27
2019-02-07T19:46:10.129Z,3.90
2019-02-07T19:48:38.185Z,3.83
2019-02-07T19:51:06.175Z,3.93
2019-02-07T19:53:34.236Z,3.20
2019-02-07T19:56:02.320Z,3.83
2019-02-07T19:58:30.380Z,4.00
2019-02-07T20:00:58.428Z,3.33
2019-02-07T20:03:26.690Z,4.07
2019-02-07T20:05:54.812Z,3.43
2019-02-07T20:08:22.865Z,4.13
2019-02-07T20:10:50.869Z,3.60
2019-02-07T20:13:18.975Z,3.67
2019-02-07T20:15:46.996Z,3.63
2019-02-07T20:18:15.068Z,3.83
2019-02-07T20:20:44.013Z,3.50
2019-02-07T20:23:12.080Z,4.10
2019-02-07T20:25:40.433Z,3.53
2019-02-07T20:28:08.529Z,3.70
2019-02-07T20:30:37.368Z,4.10
2019-02-07T20:33:05.984Z,4.17
2019-02-07T20:35:33.980Z,3.50
2019-02-07T20:38:02.103Z,3.67
2019-02-07T20:40:30.361Z,4.40
2019-02-07T20:42:58.628Z,4.70
2019-02-07T20:45:26.865Z,4.63
2019-02-07T20:47:54.869Z,4.07
2019-02-07T20:50:23.469Z,4.30
2019-02-07T20:52:52.100Z,4.27
2019-02-07T20:55:20.376Z,4.10
2019-02-07T20:57:48.451Z,4.30
2019-02-07T21:00:18.235Z,4.67
2019-02-07T21:02:46.616Z,3.93
2019-02-07T21:05:14.875Z,4.33
2019-02-07T21:07:43.008Z,3.40
2019-02-07T21:10:11.813Z,3.87
2019-02-07T21:12:39.842Z,4.17
2019-02-07T21:15:08.907Z,4.23
2019-02-07T21:17:37.069Z,4.70
2019-02-07T21:20:06.879Z,3.57
2019-02-07T21:22:34.896Z,4.40
2019-02-07T21:25:02.867Z,3.90
2019-02-07T21:27:31.207Z,3.60
2019-02-07T21:29:59.277Z,3.60
2019-02-07T21:32:27.411Z,3.63
2019-02-07T21:34:55.395Z,4.50
2019-02-07T21:37:23.576Z,3.77
2019-02-07T21:39:51.559Z,3.73
2019-02-07T21:42:19.717Z,5.03
2019-02-07T21:44:47.890Z,5.60
2019-02-07T21:47:17.659Z,4.23
2019-02-07T21:49:46.442Z,4.63
2019-02-07T21:52:14.762Z,4.53
2019-02-07T21:54:43.371Z,4.20
2019-02-07T21:57:13.473Z,4.03
2019-02-07T21:59:43.378Z,4.67
2019-02-07T22:02:12.101Z,3.87
2019-02-07T22:04:43.032Z,4.37
2019-02-07T22:07:13.071Z,4.63
2019-02-07T22:09:41.362Z,4.00
2019-02-07T22:12:09.397Z,4.30
2019-02-07T22:14:37.376Z,4.10
2019-02-07T22:17:05.300Z,3.77
2019-02-07T22:19:33.344Z,3.80
2019-02-07T22:22:01.399Z,3.40
2019-02-07T22:24:31.074Z,3.70
2019-02-07T22:26:59.355Z,3.33
2019-02-07T22:29:27.301Z,2.87
2019-02-07T22:31:57.436Z,3.80
2019-02-07T22:34:25.377Z,3.53
2019-02-07T22:36:53.595Z,3.93
2019-02-07T22:39:21.561Z,3.23
2019-02-07T22:41:49.536Z,3.60
2019-02-07T22:44:17.949Z,3.70
2019-02-07T22:46:45.910Z,4.17
2019-02-07T22:49:21.215Z,3.73
2019-02-07T22:51:49.555Z,3.90
2019-02-07T22:54:17.616Z,3.73
2019-02-07T22:56:47.270Z,3.53
2019-02-07T22:59:15.548Z,3.40
2019-02-07T23:01:48.636Z,3.83
2019-02-07T23:04:16.918Z,3.60
2019-02-07T23:06:45.076Z,4.27
2019-02-07T23:09:15.100Z,3.03
2019-02-07T23:11:43.137Z,3.63
2019-02-07T23:14:11.888Z,3.67
2019-02-07T23:16:39.920Z,3.20
2019-02-07T23:19:07.885Z,3.37
2019-02-07T23:21:36.076Z,3.13
2019-02-07T23:24:06.192Z,3.57
2019-02-07T23:26:34.180Z,2.97
2019-02-07T23:29:02.848Z,3.17
2019-02-07T23:31:30.940Z,3.40
2019-02-07T23:33:58.908Z,3.20
2019-02-07T23:36:26.934Z,3.20
2019-02-07T23:38:55.073Z,3.27
2019-02-07T23:41:23.084Z,2.87
2019-02-07T23:43:51.010Z,2.77
2019-02-07T23:46:19.055Z,3.27
2019-02-07T23:48:47.257Z,3.30
2019-02-07T23:51:15.174Z,2.90
2019-02-07T23:53:43.211Z,3.37
2019-02-07T23:56:13.436Z,2.90
2019-02-07T23:58:41.435Z,3.00
